Аэропорт: Кызылорда. Кызылорда

ICAO: UAOO

METAR:
2024-04-22 21:00:00
UAOO 222100Z 13003MPS CAVOK 16/06 Q1011 NOSIG RMK QFE746/0995
TAF:
2024-04-22 20:00:00
TAF UAOO 222000Z 2221/2306 09003MPS CAVOK